MMTC

Francisco Sarabia International Airport

Airport
ICAO code
MMTC
IATA Code
TRC
Summary
ICAO Region
CARSAM
ICAO Territory
Location

Torreon, Coahuila de Zaragoza

Serving
Torreon
Elevation
3688 ft
Coordinates
25° 33' 48" N , 103° 23' 56" W
KCC
Metar
MMTC 231043Z 30008KT 8SM SKC 27/M08 A2996

International airport located in Torreón, Coahuila, Mexico.

Climatology

Warm desert climate (Köppen climate classification BWh)

Runways

Designator Length Width Surface Rops
8/26 1718 30 ASP Yes/Yes
12/30 2750 45 ASP Yes/Yes

Airport map

Aerial View

SKYbrary Partners:

Safety knowledge contributed by: